Time;durP1;ratioP1;P1;durP2;ratioP2;P2;SDS_P1;SDS_P2;PMS_P1;PMS_P2;Temp;Humidity;BMP_temperature;BMP_pressure;BME280_temperature;BME280_humidity;BME280_pressure;Samples;Min_cycle;Max_cycle;Signal;HPM_P1;HPM_P2
2021/06/01 00:00:10;;;;;;;21.10;13.07;;;;;;;;;;6155552;23;20306;-83
2021/06/01 00:02:37;;;;;;;20.13;13.30;;;;;;;;;;6129760;23;20108;-82
2021/06/01 00:05:05;;;;;;;25.63;14.63;;;;;;;;;;6127572;23;20036;-82
2021/06/01 00:07:32;;;;;;;21.63;13.65;;;;;;;;;;6154298;23;20403;-82
2021/06/01 00:09:58;;;;;;;23.65;14.13;;;;;;;;;;6155446;23;20036;-82
2021/06/01 00:12:25;;;;;;;21.73;13.13;;;;;;;;;;6155085;23;20381;-82
2021/06/01 00:14:52;;;;;;;20.58;12.73;;;;;;;;;;6155014;23;20075;-82
2021/06/01 00:17:18;;;;;;;25.52;13.10;;;;;;;;;;6129592;23;20029;-83
2021/06/01 00:19:45;;;;;;;21.10;14.13;;;;;;;;;;6155921;23;20081;-82
2021/06/01 00:22:12;;;;;;;25.90;15.27;;;;;;;;;;6136376;23;20077;-82
2021/06/01 00:24:38;;;;;;;23.05;14.52;;;;;;;;;;6148303;22;20014;-82
2021/06/01 00:27:05;;;;;;;25.40;15.02;;;;;;;;;;6169690;23;20080;-82
2021/06/01 00:29:32;;;;;;;22.60;14.73;;;;;;;;;;6130274;23;20033;-82
2021/06/01 00:32:00;;;;;;;24.98;14.95;;;;;;;;;;6155963;23;20017;-82
2021/06/01 00:34:29;;;;;;;25.80;15.15;;;;;;;;;;6155217;23;20377;-82
2021/06/01 00:36:59;;;;;;;29.52;17.60;;;;;;;;;;6128944;23;20367;-82
2021/06/01 00:39:27;;;;;;;24.83;16.25;;;;;;;;;;6130278;23;20027;-82
2021/06/01 00:41:54;;;;;;;24.20;16.02;;;;;;;;;;6128677;23;20108;-82
2021/06/01 00:44:21;;;;;;;29.70;17.05;;;;;;;;;;6129548;23;20112;-82
2021/06/01 00:46:47;;;;;;;28.30;16.17;;;;;;;;;;6155053;23;20034;-82
2021/06/01 00:49:14;;;;;;;27.27;16.77;;;;;;;;;;6129166;23;20036;-82
2021/06/01 00:51:47;;;;;;;29.73;17.50;;;;;;;;;;6154552;23;20049;-82
2021/06/01 00:54:14;;;;;;;29.48;18.30;;;;;;;;;;6128308;23;20047;-82
2021/06/01 00:56:44;;;;;;;25.25;17.00;;;;;;;;;;6128569;23;20036;-82
2021/06/01 00:59:11;;;;;;;26.00;16.75;;;;;;;;;;6128817;23;20159;-82
2021/06/01 01:01:38;;;;;;;32.95;19.30;;;;;;;;;;6154624;23;20291;-82
2021/06/01 01:04:04;;;;;;;30.70;18.67;;;;;;;;;;6127982;23;20337;-82
2021/06/01 01:06:47;;;;;;;32.45;18.35;;;;;;;;;;6127843;23;20039;-82
2021/06/01 01:09:17;;;;;;;27.80;17.05;;;;;;;;;;6127936;23;20390;-82
2021/06/01 01:12:03;;;;;;;26.77;17.05;;;;;;;;;;6128728;23;20051;-83
2021/06/01 01:14:41;;;;;;;25.75;16.77;;;;;;;;;;6129391;23;20460;-83
2021/06/01 01:17:10;;;;;;;26.90;17.63;;;;;;;;;;6151916;22;20030;-82
2021/06/01 01:19:45;;;;;;;30.45;16.83;;;;;;;;;;6128708;23;20032;-82
2021/06/01 01:22:12;;;;;;;33.67;19.20;;;;;;;;;;6129806;23;20029;-82
2021/06/01 01:24:42;;;;;;;26.90;18.45;;;;;;;;;;6129575;23;20025;-82
2021/06/01 01:27:29;;;;;;;31.27;18.23;;;;;;;;;;6155117;23;20025;-82
2021/06/01 01:29:57;;;;;;;28.75;17.25;;;;;;;;;;6168601;23;20033;-82
2021/06/01 01:33:03;;;;;;;32.58;19.25;;;;;;;;;;6129177;23;20026;-82
2021/06/01 01:35:31;;;;;;;29.10;18.73;;;;;;;;;;6133663;23;20029;-82
2021/06/01 01:37:59;;;;;;;28.00;17.67;;;;;;;;;;6130841;23;20040;-81
2021/06/01 01:40:28;;;;;;;27.95;17.63;;;;;;;;;;6157273;23;20060;-82
2021/06/01 01:43:01;;;;;;;30.35;19.77;;;;;;;;;;6132800;23;20401;-81
2021/06/01 01:45:33;;;;;;;35.63;20.25;;;;;;;;;;6131185;23;20035;-82
2021/06/01 01:50:53;;;;;;;32.95;20.48;;;;;;;;;;6153155;23;20029;-82
2021/06/01 01:53:20;;;;;;;38.13;20.40;;;;;;;;;;6125345;23;20277;-82
2021/06/01 01:55:49;;;;;;;37.13;20.63;;;;;;;;;;6127290;23;20064;-81
2021/06/01 01:58:16;;;;;;;30.92;19.60;;;;;;;;;;6127133;23;20040;-82
2021/06/01 02:00:44;;;;;;;30.52;20.08;;;;;;;;;;6157122;23;20037;-82
2021/06/01 02:03:10;;;;;;;30.23;20.17;;;;;;;;;;6130962;23;20183;-82
2021/06/01 02:05:38;;;;;;;31.80;19.35;;;;;;;;;;6156326;23;20037;-81
2021/06/01 02:08:08;;;;;;;33.65;19.65;;;;;;;;;;6159412;23;20025;-81
2021/06/01 02:10:35;;;;;;;35.45;22.02;;;;;;;;;;6159187;23;20078;-81
2021/06/01 02:13:01;;;;;;;31.30;20.38;;;;;;;;;;6156883;23;20030;-82
2021/06/01 02:15:28;;;;;;;31.38;20.02;;;;;;;;;;6154130;23;20093;-82
2021/06/01 02:17:55;;;;;;;31.60;19.42;;;;;;;;;;6155619;23;20270;-81
2021/06/01 02:20:22;;;;;;;31.13;19.50;;;;;;;;;;6129775;23;20287;-81
2021/06/01 02:25:40;;;;;;;27.85;17.65;;;;;;;;;;6160787;23;20299;-82
2021/06/01 02:28:14;;;;;;;28.10;17.42;;;;;;;;;;6155657;23;20029;-82
2021/06/01 02:30:47;;;;;;;30.27;18.38;;;;;;;;;;6129774;23;20029;-82
2021/06/01 02:33:14;;;;;;;31.77;20.08;;;;;;;;;;6129835;23;20030;-82
2021/06/01 02:35:41;;;;;;;29.17;17.90;;;;;;;;;;6153993;23;20158;-82
2021/06/01 02:38:09;;;;;;;34.22;19.52;;;;;;;;;;6154772;23;20299;-81
2021/06/01 02:40:37;;;;;;;28.15;17.80;;;;;;;;;;6129337;23;20112;-82
2021/06/01 02:43:05;;;;;;;30.65;20.63;;;;;;;;;;6153551;23;20033;-82
2021/06/01 02:45:36;;;;;;;27.33;18.50;;;;;;;;;;6153746;23;20030;-81
2021/06/01 02:48:03;;;;;;;29.95;19.02;;;;;;;;;;6129596;23;20375;-81
2021/06/01 02:50:30;;;;;;;32.78;20.50;;;;;;;;;;6152522;23;20243;-81
2021/06/01 02:52:58;;;;;;;28.27;17.67;;;;;;;;;;6155199;23;20022;-81
2021/06/01 02:55:25;;;;;;;27.75;17.58;;;;;;;;;;6156275;23;20049;-82
2021/06/01 02:57:51;;;;;;;29.73;18.83;;;;;;;;;;6156211;23;20085;-82
2021/06/01 03:00:19;;;;;;;31.00;19.33;;;;;;;;;;6156029;23;20078;-81
2021/06/01 03:02:47;;;;;;;34.50;20.73;;;;;;;;;;6129209;23;20373;-81
2021/06/01 03:05:17;;;;;;;37.08;22.45;;;;;;;;;;6128608;23;20034;-82
2021/06/01 03:07:50;;;;;;;41.90;24.20;;;;;;;;;;6153659;23;20037;-81
2021/06/01 03:10:17;;;;;;;40.08;22.48;;;;;;;;;;6127518;23;20026;-81
2021/06/01 03:12:53;;;;;;;36.53;21.65;;;;;;;;;;6153697;23;20590;-82
2021/06/01 03:15:22;;;;;;;42.55;23.02;;;;;;;;;;6128057;23;20353;-82
2021/06/01 03:17:49;;;;;;;33.67;19.92;;;;;;;;;;6127423;23;20051;-81
2021/06/01 03:20:15;;;;;;;41.35;21.05;;;;;;;;;;6153222;23;20037;-81
2021/06/01 03:22:42;;;;;;;33.13;20.45;;;;;;;;;;6128252;23;20307;-82
2021/06/01 03:25:15;;;;;;;33.17;20.75;;;;;;;;;;6152387;23;20395;-82
2021/06/01 03:27:42;;;;;;;34.42;20.58;;;;;;;;;;6153987;23;20335;-82
2021/06/01 03:30:09;;;;;;;36.25;20.70;;;;;;;;;;6126853;23;20313;-82
2021/06/01 03:32:36;;;;;;;36.08;21.08;;;;;;;;;;6151999;23;20329;-81
2021/06/01 03:35:10;;;;;;;33.17;20.67;;;;;;;;;;6152325;23;20029;-81
2021/06/01 03:37:36;;;;;;;35.55;20.55;;;;;;;;;;6151331;23;20025;-81
2021/06/01 03:40:03;;;;;;;34.38;20.83;;;;;;;;;;6126790;23;20398;-81
2021/06/01 03:42:30;;;;;;;36.17;21.90;;;;;;;;;;6136216;22;20029;-82
2021/06/01 03:44:57;;;;;;;32.63;19.63;;;;;;;;;;6147101;22;20036;-82
2021/06/01 03:47:23;;;;;;;36.00;19.95;;;;;;;;;;6165451;23;20025;-82
2021/06/01 03:49:50;;;;;;;31.08;21.00;;;;;;;;;;6153302;23;20026;-82
2021/06/01 03:52:17;;;;;;;32.20;20.30;;;;;;;;;;6127686;23;20025;-82
2021/06/01 03:54:43;;;;;;;35.83;20.83;;;;;;;;;;6153210;23;20309;-81
2021/06/01 03:57:11;;;;;;;33.33;21.15;;;;;;;;;;6154205;23;20025;-81
2021/06/01 03:59:38;;;;;;;34.90;20.45;;;;;;;;;;6126737;23;20057;-81
2021/06/01 04:02:05;;;;;;;31.67;19.73;;;;;;;;;;6124789;23;20075;-81
2021/06/01 04:04:32;;;;;;;29.23;18.98;;;;;;;;;;6126630;23;20037;-81
2021/06/01 04:06:59;;;;;;;27.17;17.05;;;;;;;;;;6152565;23;20076;-81
2021/06/01 04:09:25;;;;;;;29.65;17.98;;;;;;;;;;6127658;23;20025;-81
2021/06/01 04:11:52;;;;;;;28.38;17.67;;;;;;;;;;6127133;23;20029;-81
2021/06/01 04:14:19;;;;;;;28.60;17.05;;;;;;;;;;6153327;23;20025;-82
2021/06/01 04:16:47;;;;;;;26.27;15.35;;;;;;;;;;6152565;23;20310;-81
2021/06/01 04:19:14;;;;;;;21.48;15.05;;;;;;;;;;6126588;23;20025;-81
2021/06/01 04:21:44;;;;;;;20.13;13.50;;;;;;;;;;6125656;23;20037;-81
2021/06/01 04:24:10;;;;;;;24.33;14.73;;;;;;;;;;6149599;23;20417;-82
2021/06/01 04:26:38;;;;;;;24.05;15.38;;;;;;;;;;6149320;23;20052;-80
2021/06/01 04:29:05;;;;;;;20.45;13.73;;;;;;;;;;6123929;23;20420;-80
2021/06/01 04:31:31;;;;;;;20.33;13.45;;;;;;;;;;6151187;23;20026;-83
2021/06/01 04:33:58;;;;;;;20.42;15.13;;;;;;;;;;6125472;23;20032;-83
2021/06/01 04:36:25;;;;;;;20.02;13.13;;;;;;;;;;6124543;23;20272;-81
2021/06/01 04:38:53;;;;;;;17.02;12.25;;;;;;;;;;6124486;23;20025;-82
2021/06/01 04:41:19;;;;;;;18.90;12.80;;;;;;;;;;6149511;23;20025;-83
2021/06/01 04:43:46;;;;;;;18.20;12.20;;;;;;;;;;6123421;23;20030;-81
2021/06/01 04:46:13;;;;;;;21.23;12.57;;;;;;;;;;6150482;23;20041;-81
2021/06/01 04:48:40;;;;;;;17.60;11.55;;;;;;;;;;6148313;23;20094;-82
2021/06/01 04:51:16;;;;;;;14.55;10.65;;;;;;;;;;6123155;23;20177;-81
2021/06/01 04:53:44;;;;;;;19.25;11.65;;;;;;;;;;6125008;23;20383;-81
2021/06/01 04:56:10;;;;;;;15.85;9.18;;;;;;;;;;6150973;23;20310;-82
2021/06/01 04:58:37;;;;;;;17.05;9.52;;;;;;;;;;6147045;23;20028;-82
2021/06/01 05:01:04;;;;;;;15.68;9.98;;;;;;;;;;6121510;23;20025;-81
2021/06/01 05:03:31;;;;;;;13.90;9.85;;;;;;;;;;6121698;23;20036;-82
2021/06/01 05:06:13;;;;;;;14.65;9.88;;;;;;;;;;6152794;23;20036;-83
2021/06/01 05:08:48;;;;;;;17.23;10.75;;;;;;;;;;6156602;23;20035;-83
2021/06/01 05:11:15;;;;;;;12.98;9.68;;;;;;;;;;6145197;23;20298;-82
2021/06/01 05:13:42;;;;;;;11.43;9.25;;;;;;;;;;6133188;22;20188;-84
2021/06/01 05:16:09;;;;;;;14.48;10.30;;;;;;;;;;6148632;23;20072;-82
2021/06/01 05:18:36;;;;;;;16.38;9.70;;;;;;;;;;6153709;23;20049;-82
2021/06/01 05:21:06;;;;;;;13.70;9.80;;;;;;;;;;6149751;23;20288;-82
2021/06/01 05:23:33;;;;;;;14.00;9.73;;;;;;;;;;6147018;23;20167;-82
2021/06/01 05:26:00;;;;;;;13.57;9.63;;;;;;;;;;6147127;23;20035;-82
2021/06/01 05:28:27;;;;;;;16.33;9.70;;;;;;;;;;6146506;23;20108;-82
2021/06/01 05:33:24;;;;;;;16.10;8.23;;;;;;;;;;6146007;23;20398;-83
2021/06/01 05:35:54;;;;;;;13.80;8.77;;;;;;;;;;6146214;23;20087;-82
2021/06/01 05:38:21;;;;;;;21.08;9.35;;;;;;;;;;6146000;23;20025;-82
2021/06/01 05:40:48;;;;;;;10.60;8.23;;;;;;;;;;6149249;23;20049;-83
2021/06/01 05:43:17;;;;;;;10.27;8.32;;;;;;;;;;6127160;23;20021;-84
2021/06/01 05:45:44;;;;;;;12.48;8.10;;;;;;;;;;6119839;23;20026;-82
2021/06/01 05:48:12;;;;;;;13.85;8.75;;;;;;;;;;6117321;23;20107;-82
2021/06/01 05:50:40;;;;;;;14.65;7.03;;;;;;;;;;6119415;23;20034;-82
2021/06/01 05:53:12;;;;;;;12.25;7.85;;;;;;;;;;6118782;23;20124;-82
2021/06/01 05:55:41;;;;;;;10.75;7.28;;;;;;;;;;6116708;23;20129;-81
2021/06/01 05:58:08;;;;;;;10.43;7.18;;;;;;;;;;6147252;23;20271;-82
2021/06/01 06:00:35;;;;;;;11.02;7.72;;;;;;;;;;6145859;23;20035;-81
2021/06/01 06:03:03;;;;;;;13.30;7.20;;;;;;;;;;6124711;23;20344;-81
2021/06/01 06:05:30;;;;;;;13.60;7.32;;;;;;;;;;6119526;23;20036;-81
2021/06/01 06:08:17;;;;;;;9.43;6.47;;;;;;;;;;6119551;23;20044;-81
2021/06/01 06:10:44;;;;;;;11.80;5.88;;;;;;;;;;6144528;23;20052;-82
2021/06/01 06:13:11;;;;;;;10.35;6.35;;;;;;;;;;6143662;23;20306;-81
2021/06/01 06:15:45;;;;;;;8.70;6.13;;;;;;;;;;6118564;23;20305;-82
2021/06/01 06:18:22;;;;;;;8.65;6.30;;;;;;;;;;6141479;23;20029;-82
2021/06/01 06:20:49;;;;;;;9.45;6.38;;;;;;;;;;6116878;23;20022;-82
2021/06/01 06:23:16;;;;;;;10.32;6.30;;;;;;;;;;6117126;23;20073;-81
2021/06/01 06:25:43;;;;;;;13.25;6.28;;;;;;;;;;6144808;23;20047;-82
2021/06/01 06:28:10;;;;;;;11.07;5.85;;;;;;;;;;6145030;23;20454;-82
2021/06/01 06:30:37;;;;;;;8.10;5.78;;;;;;;;;;6143590;23;20083;-82
2021/06/01 06:33:03;;;;;;;11.02;6.40;;;;;;;;;;6145640;23;20343;-82
2021/06/01 06:35:32;;;;;;;8.75;6.18;;;;;;;;;;6121246;23;20031;-81
2021/06/01 06:37:59;;;;;;;10.73;6.32;;;;;;;;;;6122688;23;20314;-82
2021/06/01 06:40:26;;;;;;;10.27;5.75;;;;;;;;;;6121483;23;20032;-83
2021/06/01 06:42:53;;;;;;;10.55;6.03;;;;;;;;;;6147825;23;20112;-83
2021/06/01 06:45:19;;;;;;;12.18;5.78;;;;;;;;;;6124911;23;20102;-81
2021/06/01 06:50:17;;;;;;;9.63;5.35;;;;;;;;;;6144537;23;20036;-83
2021/06/01 06:52:44;;;;;;;8.95;5.38;;;;;;;;;;6120882;23;20025;-83
2021/06/01 06:55:13;;;;;;;12.50;4.70;;;;;;;;;;6126134;23;20022;-82
2021/06/01 06:57:42;;;;;;;9.23;4.95;;;;;;;;;;6146346;23;20029;-82
2021/06/01 07:00:11;;;;;;;8.48;4.65;;;;;;;;;;6122379;23;20028;-81
2021/06/01 07:02:39;;;;;;;11.38;5.18;;;;;;;;;;6162935;23;20013;-81
2021/06/01 07:05:06;;;;;;;12.07;4.63;;;;;;;;;;6138198;22;20178;-82
2021/06/01 07:07:33;;;;;;;9.55;4.40;;;;;;;;;;6154645;23;20179;-82
2021/06/01 07:10:01;;;;;;;11.02;4.85;;;;;;;;;;6129042;23;20298;-82
2021/06/01 07:12:28;;;;;;;9.85;4.75;;;;;;;;;;6153286;23;20284;-82
2021/06/01 07:14:58;;;;;;;13.02;4.13;;;;;;;;;;6153483;23;20056;-81
2021/06/01 07:17:25;;;;;;;9.82;4.72;;;;;;;;;;6121981;23;20072;-83
2021/06/01 07:19:55;;;;;;;6.78;4.30;;;;;;;;;;6120487;23;20086;-82
2021/06/01 07:22:21;;;;;;;7.65;4.43;;;;;;;;;;6146813;23;20057;-82
2021/06/01 07:24:48;;;;;;;12.75;4.72;;;;;;;;;;6146314;23;20084;-82
2021/06/01 07:27:15;;;;;;;9.73;4.88;;;;;;;;;;6125111;23;20291;-81
2021/06/01 07:29:42;;;;;;;12.07;3.97;;;;;;;;;;6124046;23;20064;-82
2021/06/01 07:32:08;;;;;;;9.88;4.65;;;;;;;;;;6120593;23;20030;-82
2021/06/01 07:34:37;;;;;;;11.07;5.40;;;;;;;;;;6117738;23;20418;-83
2021/06/01 07:37:04;;;;;;;12.43;4.38;;;;;;;;;;6142638;23;20252;-82
2021/06/01 07:39:31;;;;;;;15.02;4.85;;;;;;;;;;6116453;23;20029;-82
2021/06/01 07:41:58;;;;;;;9.27;4.65;;;;;;;;;;6141902;23;20064;-82
2021/06/01 07:44:30;;;;;;;7.90;4.25;;;;;;;;;;6117899;23;20037;-82
2021/06/01 07:46:56;;;;;;;11.02;4.70;;;;;;;;;;6120166;23;20052;-83
2021/06/01 07:49:23;;;;;;;11.38;5.25;;;;;;;;;;6144771;23;20094;-82
2021/06/01 07:51:59;;;;;;;15.30;5.18;;;;;;;;;;6143659;23;20056;-82
2021/06/01 07:54:25;;;;;;;;;;;;;;;;;;6120570;23;20342;-81
2021/06/01 07:56:52;;;;;;;7.82;4.10;;;;;;;;;;6144509;23;20156;-81
2021/06/01 07:59:19;;;;;;;11.13;4.68;;;;;;;;;;6117909;23;20187;-82
2021/06/01 08:01:48;;;;;;;11.43;4.43;;;;;;;;;;6118010;23;20040;-82
2021/06/01 08:04:15;;;;;;;10.60;4.45;;;;;;;;;;6145192;23;20043;-82
2021/06/01 08:06:42;;;;;;;10.40;3.88;;;;;;;;;;6117406;23;20030;-81
2021/06/01 08:09:10;;;;;;;9.30;4.15;;;;;;;;;;6119879;23;20029;-82
2021/06/01 08:11:37;;;;;;;12.68;5.75;;;;;;;;;;6149796;23;20029;-82
2021/06/01 08:14:04;;;;;;;9.93;4.28;;;;;;;;;;6143619;23;20206;-82
2021/06/01 08:16:32;;;;;;;8.27;4.75;;;;;;;;;;6121054;23;20031;-82
2021/06/01 08:19:12;;;;;;;9.25;4.03;;;;;;;;;;6146883;23;20035;-83
2021/06/01 08:24:27;;;;;;;7.30;4.05;;;;;;;;;;6144925;23;20022;-83
2021/06/01 08:26:58;;;;;;;8.45;3.47;;;;;;;;;;6119042;23;20080;-83
2021/06/01 08:29:25;;;;;;;10.68;3.70;;;;;;;;;;6143915;23;20402;-83
2021/06/01 08:31:52;;;;;;;7.43;3.78;;;;;;;;;;6115590;23;20151;-84
2021/06/01 08:34:19;;;;;;;9.32;4.68;;;;;;;;;;6119243;23;20044;-83
2021/06/01 08:36:45;;;;;;;9.88;4.25;;;;;;;;;;6120104;23;20486;-83
2021/06/01 08:39:12;;;;;;;7.60;3.70;;;;;;;;;;6119767;23;20052;-82
2021/06/01 08:41:42;;;;;;;8.48;3.70;;;;;;;;;;6145209;23;20037;-85
2021/06/01 08:44:13;;;;;;;7.25;3.35;;;;;;;;;;6121062;23;20029;-83
2021/06/01 08:46:40;;;;;;;7.90;3.15;;;;;;;;;;6118618;23;20357;-82
2021/06/01 08:49:07;;;;;;;5.63;3.30;;;;;;;;;;6116987;23;20026;-83
2021/06/01 08:51:34;;;;;;;6.72;3.10;;;;;;;;;;6143919;23;20022;-83
2021/06/01 08:54:01;;;;;;;10.10;3.85;;;;;;;;;;6121498;23;20076;-82
2021/06/01 08:56:28;;;;;;;14.32;3.80;;;;;;;;;;6144867;23;20149;-83
2021/06/01 08:58:54;;;;;;;5.50;2.92;;;;;;;;;;6143950;23;20049;-83
2021/06/01 09:01:22;;;;;;;4.82;3.00;;;;;;;;;;6119559;23;20026;-83
2021/06/01 09:03:53;;;;;;;7.32;3.13;;;;;;;;;;6147957;23;20753;-82
2021/06/01 09:15:04;;;;;;;7.25;3.00;;;;;;;;;;6114035;23;20558;-83
2021/06/01 09:21:04;;;;;;;5.90;2.75;;;;;;;;;;6112519;23;20030;-84
2021/06/01 09:22:57;;;;;;;7.68;2.58;;;;;;;;;;6114789;23;20133;-83
2021/06/01 09:28:13;;;;;;;9.23;2.55;;;;;;;;;;6115444;23;20030;-83
2021/06/01 09:30:44;;;;;;;6.88;2.33;;;;;;;;;;6114642;23;20022;-83
2021/06/01 09:33:14;;;;;;;6.30;2.30;;;;;;;;;;6114124;23;20026;-83
2021/06/01 09:35:45;;;;;;;3.30;2.40;;;;;;;;;;6089941;23;20338;-83
2021/06/01 09:38:12;;;;;;;8.10;2.83;;;;;;;;;;6087833;23;20025;-83
2021/06/01 09:40:41;;;;;;;8.10;3.15;;;;;;;;;;6115989;23;20037;-83
2021/06/01 09:43:10;;;;;;;5.13;3.05;;;;;;;;;;6091678;23;20327;-84
2021/06/01 09:45:37;;;;;;;5.20;2.88;;;;;;;;;;6090040;23;20042;-84
2021/06/01 09:48:07;;;;;;;7.05;3.50;;;;;;;;;;6114537;23;20406;-83
2021/06/01 09:53:26;;;;;;;5.75;2.80;;;;;;;;;;6114257;23;20096;-84
2021/06/01 09:55:54;;;;;;;10.38;3.80;;;;;;;;;;6116499;23;20116;-84
2021/06/01 09:58:24;;;;;;;7.05;3.58;;;;;;;;;;6089484;23;20285;-84
2021/06/01 10:00:50;;;;;;;9.68;3.20;;;;;;;;;;6091126;23;20052;-84
2021/06/01 10:03:20;;;;;;;6.65;3.67;;;;;;;;;;6090101;23;20026;-84
2021/06/01 10:05:51;;;;;;;9.00;3.72;;;;;;;;;;6088139;23;20042;-84
2021/06/01 10:08:19;;;;;;;6.10;3.72;;;;;;;;;;6114225;23;20258;-83
2021/06/01 10:10:53;;;;;;;7.10;3.60;;;;;;;;;;6092552;23;20061;-82
2021/06/01 10:13:22;;;;;;;4.80;3.65;;;;;;;;;;6141518;23;20037;-83
2021/06/01 10:15:49;;;;;;;6.60;3.67;;;;;;;;;;6123259;23;20081;-83
2021/06/01 10:18:19;;;;;;;5.38;3.30;;;;;;;;;;6119428;23;20323;-83
2021/06/01 10:20:49;;;;;;;9.38;3.97;;;;;;;;;;6120911;23;20036;-84
2021/06/01 10:23:22;;;;;;;7.60;3.60;;;;;;;;;;6159489;23;20083;-83
2021/06/01 10:25:48;;;;;;;5.95;3.22;;;;;;;;;;6164255;23;20013;-84
2021/06/01 10:31:36;;;;;;;9.57;3.38;;;;;;;;;;6131977;23;20118;-83
2021/06/01 10:34:04;;;;;;;10.95;3.13;;;;;;;;;;6119598;23;20150;-84
2021/06/01 10:50:30;;;;;;;9.68;3.33;;;;;;;;;;6141503;23;19920;-83
2021/06/01 10:53:13;;;;;;;5.38;2.50;;;;;;;;;;6120616;23;20414;-84
2021/06/01 10:55:58;;;;;;;8.43;2.78;;;;;;;;;;6145575;23;20029;-84
2021/06/01 10:58:31;;;;;;;10.48;3.00;;;;;;;;;;6118441;23;20025;-85
2021/06/01 11:04:21;;;;;;;9.27;2.90;;;;;;;;;;6150817;23;20026;-84
2021/06/01 11:06:48;;;;;;;5.72;3.25;;;;;;;;;;6125164;23;20048;-84
2021/06/01 11:09:33;;;;;;;5.22;2.80;;;;;;;;;;6154296;23;20158;-84
2021/06/01 11:12:01;;;;;;;11.32;3.05;;;;;;;;;;6154361;23;20037;-84
2021/06/01 11:14:30;;;;;;;6.78;3.10;;;;;;;;;;6145376;23;20049;-84
2021/06/01 11:16:58;;;;;;;4.20;2.92;;;;;;;;;;6148067;23;20201;-84
2021/06/01 11:19:31;;;;;;;9.25;2.85;;;;;;;;;;6121871;23;20035;-84
2021/06/01 11:22:05;;;;;;;7.78;2.92;;;;;;;;;;6122109;23;20450;-83
2021/06/01 11:35:27;;;;;;;5.38;2.85;;;;;;;;;;6147168;23;20095;-85
2021/06/01 11:38:18;;;;;;;4.88;3.00;;;;;;;;;;6151705;23;20061;-85
2021/06/01 11:41:06;;;;;;;4.63;2.70;;;;;;;;;;6149485;23;20035;-84
2021/06/01 11:43:33;;;;;;;8.35;2.78;;;;;;;;;;6149749;23;20037;-85
2021/06/01 11:51:47;;;;;;;6.20;3.17;;;;;;;;;;6149175;23;20089;-84
2021/06/01 11:54:15;;;;;;;4.32;2.97;;;;;;;;;;6150015;23;20034;-85
2021/06/01 12:18:36;;;;;;;5.50;3.42;;;;;;;;;;6147082;23;20030;-84
2021/06/01 12:21:32;;;;;;;8.38;2.80;;;;;;;;;;6147949;23;20120;-84
2021/06/01 12:24:14;;;;;;;3.22;2.67;;;;;;;;;;6124413;23;20181;-83
2021/06/01 12:32:30;;;;;;;7.88;3.00;;;;;;;;;;6162944;23;20025;-84
2021/06/01 12:35:24;;;;;;;5.43;2.80;;;;;;;;;;6133533;23;20041;-84
2021/06/01 12:46:32;;;;;;;4.80;2.80;;;;;;;;;;6150161;23;19924;-83
2021/06/01 13:19:38;;;;;;;5.93;3.00;;;;;;;;;;6118689;23;20150;-87
2021/06/01 13:22:49;;;;;;;5.97;2.92;;;;;;;;;;6118858;23;20150;-85
2021/06/01 13:37:31;;;;;;;5.20;2.60;;;;;;;;;;6119960;23;19965;-86
2021/06/01 13:46:18;;;;;;;5.90;3.05;;;;;;;;;;6131398;23;20034;-85
2021/06/01 13:49:03;;;;;;;5.55;2.97;;;;;;;;;;6110533;23;20045;-82
2021/06/01 13:51:53;;;;;;;8.07;2.60;;;;;;;;;;6123846;23;20034;-85
2021/06/01 14:00:04;;;;;;;4.00;2.92;;;;;;;;;;6186372;23;20066;-83
2021/06/01 14:15:16;;;;;;;5.60;2.53;;;;;;;;;;6122439;23;20033;-84
2021/06/01 14:20:12;;;;;;;5.35;2.90;;;;;;;;;;6152331;23;20073;-85
2021/06/01 15:32:00;;;;;;;5.68;3.08;;;;;;;;;;6123830;23;20255;-86
2021/06/01 17:05:46;;;;;;;7.10;3.58;;;;;;;;;;6120359;23;20029;-85
2021/06/01 17:11:19;;;;;;;6.57;2.97;;;;;;;;;;6134569;22;20022;-85
2021/06/01 17:13:52;;;;;;;9.23;3.50;;;;;;;;;;6134092;22;20083;-85
2021/06/01 17:35:43;;;;;;;6.15;3.47;;;;;;;;;;6126776;23;20036;-85
2021/06/01 17:38:10;;;;;;;9.27;3.70;;;;;;;;;;6124755;23;20026;-85
2021/06/01 17:40:46;;;;;;;12.82;4.00;;;;;;;;;;6126368;23;20026;-85
2021/06/01 17:43:14;;;;;;;7.88;4.38;;;;;;;;;;6120637;23;20030;-84
2021/06/01 17:45:48;;;;;;;6.03;3.83;;;;;;;;;;6117591;23;20021;-83
2021/06/01 17:51:05;;;;;;;7.45;4.07;;;;;;;;;;6118176;23;20204;-84
2021/06/01 17:53:41;;;;;;;11.65;4.55;;;;;;;;;;6120028;23;20226;-84
2021/06/01 17:56:07;;;;;;;;;;;;;;;;;;6121573;23;20037;-84
2021/06/01 17:58:34;;;;;;;8.73;4.03;;;;;;;;;;6121375;23;20258;-84
2021/06/01 18:01:01;;;;;;;6.15;4.07;;;;;;;;;;6118331;23;20036;-84
2021/06/01 18:03:28;;;;;;;7.60;4.60;;;;;;;;;;6119167;23;20037;-84
2021/06/01 18:05:56;;;;;;;7.57;4.03;;;;;;;;;;6116193;23;20022;-84
2021/06/01 19:02:02;;;;;;;10.23;5.22;;;;;;;;;;6311965;22;20042;-84
2021/06/01 19:24:23;;;;;;;7.00;4.28;;;;;;;;;;6307480;22;20023;-85
2021/06/01 19:51:13;;;;;;;13.60;4.60;;;;;;;;;;6308287;22;20027;-83
2021/06/01 19:53:40;;;;;;;9.75;5.70;;;;;;;;;;6308200;22;20483;-83
2021/06/01 19:56:08;;;;;;;10.25;5.32;;;;;;;;;;6306275;22;20148;-84
2021/06/01 19:58:35;;;;;;;7.47;5.32;;;;;;;;;;6304331;22;20034;-83
2021/06/01 20:01:03;;;;;;;8.05;4.97;;;;;;;;;;6305589;22;20029;-84
2021/06/01 20:03:33;;;;;;;9.35;5.55;;;;;;;;;;6309044;22;20045;-84
2021/06/01 20:06:03;;;;;;;9.07;5.13;;;;;;;;;;6304957;22;20077;-84
2021/06/01 20:08:34;;;;;;;10.02;5.15;;;;;;;;;;6307024;22;20031;-83
2021/06/01 20:11:01;;;;;;;8.00;5.00;;;;;;;;;;6310333;22;20153;-83
2021/06/01 20:13:28;;;;;;;6.78;5.15;;;;;;;;;;6305455;22;20096;-84
2021/06/01 20:15:55;;;;;;;8.70;5.45;;;;;;;;;;6303992;22;20045;-84
2021/06/01 20:18:26;;;;;;;7.10;4.80;;;;;;;;;;6303693;22;20023;-83
2021/06/01 20:20:54;;;;;;;6.72;4.82;;;;;;;;;;6304617;22;20085;-84
2021/06/01 20:23:25;;;;;;;10.95;5.65;;;;;;;;;;6302964;22;20034;-83
2021/06/01 20:25:53;;;;;;;8.40;5.60;;;;;;;;;;6306171;22;20019;-84
2021/06/01 20:28:38;;;;;;;12.85;4.78;;;;;;;;;;6305323;22;20073;-83
2021/06/01 20:31:16;;;;;;;8.25;5.28;;;;;;;;;;6306975;22;20027;-84
2021/06/01 20:33:44;;;;;;;7.90;5.45;;;;;;;;;;6308551;22;20027;-83
2021/06/01 20:36:10;;;;;;;11.65;5.47;;;;;;;;;;6309464;22;20418;-83
2021/06/01 20:38:37;;;;;;;10.00;5.47;;;;;;;;;;6327448;22;20062;-83
2021/06/01 20:41:04;;;;;;;10.07;5.70;;;;;;;;;;6307715;22;20042;-84
2021/06/01 20:43:31;;;;;;;10.82;5.78;;;;;;;;;;6303437;22;20384;-84
2021/06/01 20:46:07;;;;;;;13.93;6.28;;;;;;;;;;6306197;22;20377;-84
2021/06/01 20:48:34;;;;;;;9.48;5.65;;;;;;;;;;6305274;22;20379;-84
2021/06/01 20:51:01;;;;;;;7.45;5.68;;;;;;;;;;6304356;22;20034;-84
2021/06/01 20:53:28;;;;;;;6.72;4.88;;;;;;;;;;6302494;22;20019;-84
2021/06/01 20:55:55;;;;;;;10.15;5.82;;;;;;;;;;6304548;22;20122;-84
2021/06/01 20:58:40;;;;;;;9.15;5.38;;;;;;;;;;6304316;22;20188;-84
2021/06/01 21:01:11;;;;;;;13.38;5.88;;;;;;;;;;6302610;22;20029;-84
2021/06/01 21:03:40;;;;;;;7.20;5.38;;;;;;;;;;6303367;22;20071;-84
2021/06/01 21:06:07;;;;;;;9.57;5.43;;;;;;;;;;6312256;22;20456;-85
2021/06/01 21:08:34;;;;;;;12.05;6.25;;;;;;;;;;6303464;22;20260;-83
2021/06/01 21:11:01;;;;;;;9.35;5.50;;;;;;;;;;6304010;22;20385;-84
2021/06/01 21:13:28;;;;;;;9.55;5.35;;;;;;;;;;6305398;22;20424;-83
2021/06/01 21:15:57;;;;;;;11.57;6.00;;;;;;;;;;6302922;22;20294;-83
2021/06/01 21:18:24;;;;;;;9.70;5.20;;;;;;;;;;6304440;22;20271;-83
2021/06/01 21:20:53;;;;;;;11.75;6.35;;;;;;;;;;6304417;22;20031;-83
2021/06/01 21:23:20;;;;;;;10.23;5.25;;;;;;;;;;6307427;22;20019;-83
2021/06/01 21:25:47;;;;;;;11.20;5.70;;;;;;;;;;6304203;22;20028;-83
2021/06/01 21:28:17;;;;;;;9.48;5.78;;;;;;;;;;6305149;22;20167;-83
2021/06/01 21:30:43;;;;;;;9.35;5.60;;;;;;;;;;6305070;22;20065;-83
2021/06/01 21:33:18;;;;;;;9.95;6.38;;;;;;;;;;6301918;22;20023;-83
2021/06/01 21:35:48;;;;;;;9.70;6.65;;;;;;;;;;6306629;22;20034;-83
2021/06/01 21:38:16;;;;;;;12.43;6.15;;;;;;;;;;6304419;22;20027;-84
2021/06/01 21:40:43;;;;;;;8.32;5.50;;;;;;;;;;6304831;22;20400;-84
2021/06/01 21:43:11;;;;;;;9.45;5.40;;;;;;;;;;6308989;22;20023;-84
2021/06/01 21:45:38;;;;;;;18.55;5.72;;;;;;;;;;6307324;22;20025;-84
2021/06/01 21:48:07;;;;;;;8.45;5.13;;;;;;;;;;6306816;22;20038;-83
2021/06/01 21:50:38;;;;;;;11.38;4.25;;;;;;;;;;6307761;22;20340;-84
2021/06/01 21:53:06;;;;;;;7.22;3.50;;;;;;;;;;6308173;22;20172;-84
2021/06/01 21:55:34;;;;;;;7.18;3.65;;;;;;;;;;6308853;22;20067;-84
2021/06/01 21:58:03;;;;;;;5.95;3.25;;;;;;;;;;6306989;22;20024;-83
2021/06/01 22:00:44;;;;;;;3.83;2.28;;;;;;;;;;6308199;22;20023;-83
2021/06/01 22:03:15;;;;;;;3.70;2.42;;;;;;;;;;6315720;22;20034;-84
2021/06/01 22:05:43;;;;;;;6.35;3.08;;;;;;;;;;6313871;22;20094;-84
2021/06/01 22:08:11;;;;;;;4.50;2.25;;;;;;;;;;6308204;22;20023;-84
2021/06/01 22:10:38;;;;;;;4.95;2.35;;;;;;;;;;6308577;22;20023;-84
2021/06/01 22:13:04;;;;;;;5.05;2.00;;;;;;;;;;6305929;22;20034;-84
2021/06/01 22:15:40;;;;;;;3.88;2.55;;;;;;;;;;6310948;22;20080;-84
2021/06/01 22:18:16;;;;;;;4.82;1.80;;;;;;;;;;6307923;22;20030;-84
2021/06/01 22:20:46;;;;;;;5.25;1.50;;;;;;;;;;6310716;22;20034;-83